sensor_id;sensor_type;location;lat;lon;timestamp;P1;durP1;ratioP1;P2;durP2;ratioP2
69036;SDS011;58547;51.690;5.186;2022-07-04T00:01:58;5.33;;;2.40;;
69036;SDS011;58547;51.690;5.186;2022-07-04T00:04:25;4.07;;;1.80;;
69036;SDS011;58547;51.690;5.186;2022-07-04T00:09:15;4.00;;;2.30;;
69036;SDS011;58547;51.690;5.186;2022-07-04T00:14:06;5.67;;;2.47;;
69036;SDS011;58547;51.690;5.186;2022-07-04T00:18:56;9.77;;;2.60;;
69036;SDS011;58547;51.690;5.186;2022-07-04T00:21:22;4.93;;;2.40;;
69036;SDS011;58547;51.690;5.186;2022-07-04T00:26:13;4.18;;;2.45;;
69036;SDS011;58547;51.690;5.186;2022-07-04T00:31:04;3.90;;;2.27;;
69036;SDS011;58547;51.690;5.186;2022-07-04T00:33:29;4.18;;;2.40;;
69036;SDS011;58547;51.690;5.186;2022-07-04T00:35:54;7.75;;;2.90;;
69036;SDS011;58547;51.690;5.186;2022-07-04T00:38:20;4.95;;;2.67;;
69036;SDS011;58547;51.690;5.186;2022-07-04T00:43:10;6.17;;;2.60;;
69036;SDS011;58547;51.690;5.186;2022-07-04T00:45:35;3.78;;;2.42;;
69036;SDS011;58547;51.690;5.186;2022-07-04T00:50:26;10.00;;;2.43;;
69036;SDS011;58547;51.690;5.186;2022-07-04T00:52:52;5.47;;;2.60;;
69036;SDS011;58547;51.690;5.186;2022-07-04T00:55:18;4.53;;;2.72;;
69036;SDS011;58547;51.690;5.186;2022-07-04T00:57:44;4.82;;;2.80;;
69036;SDS011;58547;51.690;5.186;2022-07-04T01:05:00;4.27;;;2.70;;
69036;SDS011;58547;51.690;5.186;2022-07-04T01:07:26;6.05;;;2.97;;
69036;SDS011;58547;51.690;5.186;2022-07-04T01:12:27;5.45;;;3.03;;
69036;SDS011;58547;51.690;5.186;2022-07-04T01:17:19;6.68;;;2.72;;
69036;SDS011;58547;51.690;5.186;2022-07-04T01:22:09;6.10;;;2.87;;
69036;SDS011;58547;51.690;5.186;2022-07-04T01:24:34;5.97;;;3.22;;
69036;SDS011;58547;51.690;5.186;2022-07-04T01:29:25;5.95;;;3.10;;
69036;SDS011;58547;51.690;5.186;2022-07-04T01:31:50;4.97;;;2.85;;
69036;SDS011;58547;51.690;5.186;2022-07-04T01:34:18;5.72;;;3.38;;
69036;SDS011;58547;51.690;5.186;2022-07-04T01:39:09;6.90;;;3.10;;
69036;SDS011;58547;51.690;5.186;2022-07-04T01:41:34;4.65;;;3.00;;
69036;SDS011;58547;51.690;5.186;2022-07-04T01:44:00;5.07;;;2.80;;
69036;SDS011;58547;51.690;5.186;2022-07-04T01:46:25;3.15;;;2.28;;
69036;SDS011;58547;51.690;5.186;2022-07-04T01:48:50;4.68;;;2.70;;
69036;SDS011;58547;51.690;5.186;2022-07-04T01:51:16;5.10;;;3.22;;
69036;SDS011;58547;51.690;5.186;2022-07-04T01:53:41;6.38;;;2.55;;
69036;SDS011;58547;51.690;5.186;2022-07-04T01:56:06;5.80;;;2.85;;
69036;SDS011;58547;51.690;5.186;2022-07-04T01:58:32;6.63;;;2.88;;
69036;SDS011;58547;51.690;5.186;2022-07-04T02:00:57;4.07;;;2.42;;
69036;SDS011;58547;51.690;5.186;2022-07-04T02:03:41;4.78;;;2.75;;
69036;SDS011;58547;51.690;5.186;2022-07-04T02:06:06;5.05;;;2.88;;
69036;SDS011;58547;51.690;5.186;2022-07-04T02:08:32;4.25;;;2.83;;
69036;SDS011;58547;51.690;5.186;2022-07-04T02:11:16;5.93;;;3.25;;
69036;SDS011;58547;51.690;5.186;2022-07-04T02:13:41;7.22;;;3.55;;
69036;SDS011;58547;51.690;5.186;2022-07-04T02:16:07;5.65;;;3.80;;
69036;SDS011;58547;51.690;5.186;2022-07-04T02:18:32;6.32;;;3.35;;
69036;SDS011;58547;51.690;5.186;2022-07-04T02:20:57;4.43;;;3.13;;
69036;SDS011;58547;51.690;5.186;2022-07-04T02:23:23;8.25;;;3.30;;
69036;SDS011;58547;51.690;5.186;2022-07-04T02:25:48;5.57;;;3.37;;
69036;SDS011;58547;51.690;5.186;2022-07-04T02:28:13;5.75;;;3.33;;
69036;SDS011;58547;51.690;5.186;2022-07-04T02:30:38;6.50;;;3.55;;
69036;SDS011;58547;51.690;5.186;2022-07-04T02:33:04;8.63;;;3.43;;
69036;SDS011;58547;51.690;5.186;2022-07-04T02:35:29;5.72;;;3.38;;
69036;SDS011;58547;51.690;5.186;2022-07-04T02:37:54;5.20;;;3.20;;
69036;SDS011;58547;51.690;5.186;2022-07-04T02:40:20;4.28;;;3.10;;
69036;SDS011;58547;51.690;5.186;2022-07-04T02:42:45;6.30;;;3.05;;
69036;SDS011;58547;51.690;5.186;2022-07-04T02:45:10;5.97;;;3.13;;
69036;SDS011;58547;51.690;5.186;2022-07-04T02:47:35;7.30;;;3.85;;
69036;SDS011;58547;51.690;5.186;2022-07-04T02:50:01;4.75;;;2.80;;
69036;SDS011;58547;51.690;5.186;2022-07-04T02:52:27;4.88;;;3.60;;
69036;SDS011;58547;51.690;5.186;2022-07-04T02:54:52;9.40;;;3.35;;
69036;SDS011;58547;51.690;5.186;2022-07-04T02:57:18;7.75;;;3.20;;
69036;SDS011;58547;51.690;5.186;2022-07-04T02:59:43;8.02;;;4.97;;
69036;SDS011;58547;51.690;5.186;2022-07-04T03:02:09;4.38;;;3.22;;
69036;SDS011;58547;51.690;5.186;2022-07-04T03:04:34;4.00;;;3.05;;
69036;SDS011;58547;51.690;5.186;2022-07-04T03:06:59;5.97;;;3.50;;
69036;SDS011;58547;51.690;5.186;2022-07-04T03:09:25;4.90;;;3.50;;
69036;SDS011;58547;51.690;5.186;2022-07-04T03:11:53;8.05;;;3.47;;
69036;SDS011;58547;51.690;5.186;2022-07-04T03:14:18;4.30;;;3.22;;
69036;SDS011;58547;51.690;5.186;2022-07-04T03:19:10;5.88;;;4.15;;
69036;SDS011;58547;51.690;5.186;2022-07-04T03:21:35;7.87;;;3.33;;
69036;SDS011;58547;51.690;5.186;2022-07-04T03:24:00;6.63;;;3.30;;
69036;SDS011;58547;51.690;5.186;2022-07-04T03:26:26;9.57;;;4.50;;
69036;SDS011;58547;51.690;5.186;2022-07-04T03:28:54;8.93;;;4.15;;
69036;SDS011;58547;51.690;5.186;2022-07-04T03:31:20;13.68;;;3.95;;
69036;SDS011;58547;51.690;5.186;2022-07-04T03:33:45;6.60;;;3.55;;
69036;SDS011;58547;51.690;5.186;2022-07-04T03:36:11;6.22;;;4.22;;
69036;SDS011;58547;51.690;5.186;2022-07-04T03:38:36;6.05;;;3.15;;
69036;SDS011;58547;51.690;5.186;2022-07-04T03:41:01;8.93;;;4.22;;
69036;SDS011;58547;51.690;5.186;2022-07-04T03:43:27;6.00;;;3.55;;
69036;SDS011;58547;51.690;5.186;2022-07-04T03:45:52;8.57;;;3.53;;
69036;SDS011;58547;51.690;5.186;2022-07-04T03:48:17;8.90;;;4.65;;
69036;SDS011;58547;51.690;5.186;2022-07-04T03:50:43;5.07;;;3.70;;
69036;SDS011;58547;51.690;5.186;2022-07-04T03:53:08;6.07;;;3.70;;
69036;SDS011;58547;51.690;5.186;2022-07-04T03:55:33;10.18;;;4.47;;
69036;SDS011;58547;51.690;5.186;2022-07-04T03:57:58;7.00;;;4.00;;
69036;SDS011;58547;51.690;5.186;2022-07-04T04:00:24;11.20;;;4.50;;
69036;SDS011;58547;51.690;5.186;2022-07-04T04:02:49;6.43;;;3.87;;
69036;SDS011;58547;51.690;5.186;2022-07-04T04:05:14;9.40;;;4.80;;
69036;SDS011;58547;51.690;5.186;2022-07-04T04:07:58;5.90;;;3.92;;
69036;SDS011;58547;51.690;5.186;2022-07-04T04:10:25;9.95;;;4.32;;
69036;SDS011;58547;51.690;5.186;2022-07-04T04:12:52;9.80;;;4.38;;
69036;SDS011;58547;51.690;5.186;2022-07-04T04:15:17;8.50;;;4.40;;
69036;SDS011;58547;51.690;5.186;2022-07-04T04:17:43;6.45;;;4.25;;
69036;SDS011;58547;51.690;5.186;2022-07-04T04:20:08;9.18;;;4.55;;
69036;SDS011;58547;51.690;5.186;2022-07-04T04:22:33;6.43;;;4.05;;
69036;SDS011;58547;51.690;5.186;2022-07-04T04:24:59;10.70;;;4.40;;
69036;SDS011;58547;51.690;5.186;2022-07-04T04:27:25;8.80;;;4.63;;
69036;SDS011;58547;51.690;5.186;2022-07-04T04:29:50;7.00;;;3.97;;
69036;SDS011;58547;51.690;5.186;2022-07-04T04:32:15;5.73;;;4.20;;
69036;SDS011;58547;51.690;5.186;2022-07-04T04:34:41;6.20;;;4.03;;
69036;SDS011;58547;51.690;5.186;2022-07-04T04:37:06;8.75;;;4.13;;
69036;SDS011;58547;51.690;5.186;2022-07-04T04:39:31;17.05;;;4.78;;
69036;SDS011;58547;51.690;5.186;2022-07-04T04:41:56;7.20;;;4.30;;
69036;SDS011;58547;51.690;5.186;2022-07-04T04:44:22;6.83;;;4.97;;
69036;SDS011;58547;51.690;5.186;2022-07-04T04:46:47;9.30;;;4.68;;
69036;SDS011;58547;51.690;5.186;2022-07-04T04:49:12;7.33;;;4.67;;
69036;SDS011;58547;51.690;5.186;2022-07-04T04:51:38;8.70;;;4.83;;
69036;SDS011;58547;51.690;5.186;2022-07-04T04:54:03;6.55;;;4.43;;
69036;SDS011;58547;51.690;5.186;2022-07-04T04:56:29;8.23;;;4.72;;
69036;SDS011;58547;51.690;5.186;2022-07-04T04:58:54;8.07;;;4.28;;
69036;SDS011;58547;51.690;5.186;2022-07-04T05:01:19;11.97;;;6.00;;
69036;SDS011;58547;51.690;5.186;2022-07-04T05:03:45;10.17;;;5.93;;
69036;SDS011;58547;51.690;5.186;2022-07-04T05:06:10;16.23;;;5.53;;
69036;SDS011;58547;51.690;5.186;2022-07-04T05:08:35;17.15;;;6.18;;
69036;SDS011;58547;51.690;5.186;2022-07-04T05:11:01;13.60;;;6.25;;
69036;SDS011;58547;51.690;5.186;2022-07-04T05:13:26;11.93;;;6.93;;
69036;SDS011;58547;51.690;5.186;2022-07-04T05:15:51;18.35;;;7.38;;
69036;SDS011;58547;51.690;5.186;2022-07-04T05:18:17;9.50;;;5.93;;
69036;SDS011;58547;51.690;5.186;2022-07-04T05:20:42;14.98;;;6.57;;
69036;SDS011;58547;51.690;5.186;2022-07-04T05:23:07;12.52;;;6.53;;
69036;SDS011;58547;51.690;5.186;2022-07-04T05:25:33;11.77;;;5.60;;
69036;SDS011;58547;51.690;5.186;2022-07-04T05:27:58;17.27;;;7.65;;
69036;SDS011;58547;51.690;5.186;2022-07-04T05:30:24;12.07;;;7.25;;
69036;SDS011;58547;51.690;5.186;2022-07-04T05:32:49;10.65;;;6.53;;
69036;SDS011;58547;51.690;5.186;2022-07-04T05:35:15;12.07;;;7.03;;
69036;SDS011;58547;51.690;5.186;2022-07-04T05:37:40;21.73;;;7.07;;
69036;SDS011;58547;51.690;5.186;2022-07-04T05:40:06;15.93;;;7.03;;
69036;SDS011;58547;51.690;5.186;2022-07-04T05:42:31;15.07;;;6.75;;
69036;SDS011;58547;51.690;5.186;2022-07-04T05:44:59;15.13;;;8.18;;
69036;SDS011;58547;51.690;5.186;2022-07-04T05:47:24;13.07;;;6.50;;
69036;SDS011;58547;51.690;5.186;2022-07-04T05:49:50;13.82;;;5.75;;
69036;SDS011;58547;51.690;5.186;2022-07-04T05:54:41;14.35;;;7.40;;
69036;SDS011;58547;51.690;5.186;2022-07-04T05:57:06;11.50;;;6.38;;
69036;SDS011;58547;51.690;5.186;2022-07-04T05:59:31;8.55;;;5.50;;
69036;SDS011;58547;51.690;5.186;2022-07-04T06:01:57;18.23;;;6.35;;
69036;SDS011;58547;51.690;5.186;2022-07-04T06:04:22;15.85;;;7.32;;
69036;SDS011;58547;51.690;5.186;2022-07-04T06:06:47;14.88;;;7.82;;
69036;SDS011;58547;51.690;5.186;2022-07-04T06:09:13;11.63;;;7.30;;
69036;SDS011;58547;51.690;5.186;2022-07-04T06:11:38;16.17;;;6.85;;
69036;SDS011;58547;51.690;5.186;2022-07-04T06:14:04;11.85;;;6.07;;
69036;SDS011;58547;51.690;5.186;2022-07-04T06:16:29;16.73;;;6.55;;
69036;SDS011;58547;51.690;5.186;2022-07-04T06:21:20;16.13;;;7.67;;
69036;SDS011;58547;51.690;5.186;2022-07-04T06:23:45;13.13;;;6.22;;
69036;SDS011;58547;51.690;5.186;2022-07-04T06:28:36;22.77;;;8.00;;
69036;SDS011;58547;51.690;5.186;2022-07-04T06:33:27;15.57;;;6.77;;
69036;SDS011;58547;51.690;5.186;2022-07-04T06:35:52;15.98;;;7.40;;
69036;SDS011;58547;51.690;5.186;2022-07-04T06:38:22;14.80;;;7.40;;
69036;SDS011;58547;51.690;5.186;2022-07-04T06:40:50;20.90;;;7.90;;
69036;SDS011;58547;51.690;5.186;2022-07-04T06:43:15;18.42;;;7.75;;
69036;SDS011;58547;51.690;5.186;2022-07-04T06:48:07;25.13;;;9.40;;
69036;SDS011;58547;51.690;5.186;2022-07-04T06:50:33;19.70;;;9.65;;
69036;SDS011;58547;51.690;5.186;2022-07-04T06:52:59;14.30;;;8.07;;
69036;SDS011;58547;51.690;5.186;2022-07-04T06:55:26;18.10;;;10.38;;
69036;SDS011;58547;51.690;5.186;2022-07-04T07:00:17;14.90;;;7.97;;
69036;SDS011;58547;51.690;5.186;2022-07-04T07:05:07;15.18;;;9.52;;
69036;SDS011;58547;51.690;5.186;2022-07-04T07:09:58;19.70;;;8.50;;
69036;SDS011;58547;51.690;5.186;2022-07-04T07:14:49;21.37;;;8.60;;
69036;SDS011;58547;51.690;5.186;2022-07-04T07:19:40;25.52;;;8.95;;
69036;SDS011;58547;51.690;5.186;2022-07-04T07:22:07;18.75;;;9.27;;
69036;SDS011;58547;51.690;5.186;2022-07-04T07:29:23;18.97;;;8.10;;
69036;SDS011;58547;51.690;5.186;2022-07-04T07:34:14;21.02;;;8.60;;
69036;SDS011;58547;51.690;5.186;2022-07-04T07:43:55;20.27;;;5.27;;
69036;SDS011;58547;51.690;5.186;2022-07-04T07:48:46;18.77;;;7.47;;
69036;SDS011;58547;51.690;5.186;2022-07-04T07:53:38;14.93;;;6.65;;
69036;SDS011;58547;51.690;5.186;2022-07-04T07:56:04;19.05;;;6.80;;
69036;SDS011;58547;51.690;5.186;2022-07-04T08:00:55;20.60;;;6.30;;
69036;SDS011;58547;51.690;5.186;2022-07-04T08:06:04;18.23;;;6.25;;
69036;SDS011;58547;51.690;5.186;2022-07-04T08:08:29;19.23;;;7.03;;
69036;SDS011;58547;51.690;5.186;2022-07-04T08:10:55;15.57;;;4.90;;
69036;SDS011;58547;51.690;5.186;2022-07-04T08:13:21;13.23;;;4.97;;
69036;SDS011;58547;51.690;5.186;2022-07-04T08:15:47;17.40;;;4.95;;
69036;SDS011;58547;51.690;5.186;2022-07-04T08:18:12;17.13;;;4.78;;
69036;SDS011;58547;51.690;5.186;2022-07-04T08:20:38;22.20;;;4.85;;
69036;SDS011;58547;51.690;5.186;2022-07-04T08:23:03;10.73;;;4.40;;
69036;SDS011;58547;51.690;5.186;2022-07-04T08:25:28;9.88;;;4.82;;
69036;SDS011;58547;51.690;5.186;2022-07-04T08:27:54;16.25;;;5.53;;
69036;SDS011;58547;51.690;5.186;2022-07-04T08:30:19;19.55;;;5.78;;
69036;SDS011;58547;51.690;5.186;2022-07-04T08:32:45;11.88;;;5.43;;
69036;SDS011;58547;51.690;5.186;2022-07-04T08:35:11;13.95;;;4.97;;
69036;SDS011;58547;51.690;5.186;2022-07-04T08:37:36;15.80;;;5.75;;
69036;SDS011;58547;51.690;5.186;2022-07-04T08:40:02;12.45;;;5.45;;
69036;SDS011;58547;51.690;5.186;2022-07-04T08:42:34;16.83;;;4.65;;
69036;SDS011;58547;51.690;5.186;2022-07-04T08:45:01;10.45;;;4.35;;
69036;SDS011;58547;51.690;5.186;2022-07-04T08:47:27;18.38;;;5.95;;
69036;SDS011;58547;51.690;5.186;2022-07-04T08:49:59;15.32;;;4.60;;
69036;SDS011;58547;51.690;5.186;2022-07-04T08:52:40;14.75;;;5.72;;
69036;SDS011;58547;51.690;5.186;2022-07-04T08:55:07;13.05;;;5.03;;
69036;SDS011;58547;51.690;5.186;2022-07-04T08:57:56;11.68;;;5.40;;
69036;SDS011;58547;51.690;5.186;2022-07-04T09:00:40;11.82;;;5.38;;
69036;SDS011;58547;51.690;5.186;2022-07-04T09:03:06;15.70;;;4.80;;
69036;SDS011;58547;51.690;5.186;2022-07-04T09:05:33;18.73;;;5.78;;
69036;SDS011;58547;51.690;5.186;2022-07-04T09:07:58;7.93;;;3.88;;
69036;SDS011;58547;51.690;5.186;2022-07-04T09:10:24;11.90;;;4.80;;
69036;SDS011;58547;51.690;5.186;2022-07-04T09:12:50;10.52;;;4.18;;
69036;SDS011;58547;51.690;5.186;2022-07-04T09:15:16;16.05;;;5.45;;
69036;SDS011;58547;51.690;5.186;2022-07-04T09:17:41;13.85;;;4.78;;
69036;SDS011;58547;51.690;5.186;2022-07-04T09:20:11;11.88;;;4.60;;
69036;SDS011;58547;51.690;5.186;2022-07-04T09:22:38;14.20;;;4.18;;
69036;SDS011;58547;51.690;5.186;2022-07-04T09:25:03;13.75;;;5.15;;
69036;SDS011;58547;51.690;5.186;2022-07-04T09:27:32;11.45;;;4.75;;
69036;SDS011;58547;51.690;5.186;2022-07-04T09:30:02;8.70;;;4.53;;
69036;SDS011;58547;51.690;5.186;2022-07-04T09:35:08;25.60;;;4.45;;
69036;SDS011;58547;51.690;5.186;2022-07-04T09:37:40;9.05;;;3.92;;
69036;SDS011;58547;51.690;5.186;2022-07-04T09:40:08;10.88;;;3.53;;
69036;SDS011;58547;51.690;5.186;2022-07-04T09:42:35;12.25;;;3.92;;
69036;SDS011;58547;51.690;5.186;2022-07-04T09:45:05;11.07;;;3.63;;
69036;SDS011;58547;51.690;5.186;2022-07-04T09:47:32;16.58;;;4.63;;
69036;SDS011;58547;51.690;5.186;2022-07-04T09:52:43;11.80;;;4.40;;
69036;SDS011;58547;51.690;5.186;2022-07-04T09:55:20;14.48;;;4.18;;
69036;SDS011;58547;51.690;5.186;2022-07-04T09:57:46;9.93;;;4.25;;
69036;SDS011;58547;51.690;5.186;2022-07-04T10:00:18;10.63;;;3.75;;
69036;SDS011;58547;51.690;5.186;2022-07-04T10:02:47;10.95;;;4.63;;
69036;SDS011;58547;51.690;5.186;2022-07-04T10:05:17;14.07;;;4.30;;
69036;SDS011;58547;51.690;5.186;2022-07-04T10:07:45;12.13;;;3.80;;
69036;SDS011;58547;51.690;5.186;2022-07-04T10:10:29;11.60;;;4.60;;
69036;SDS011;58547;51.690;5.186;2022-07-04T10:12:58;11.48;;;4.28;;
69036;SDS011;58547;51.690;5.186;2022-07-04T10:15:28;12.13;;;4.65;;
69036;SDS011;58547;51.690;5.186;2022-07-04T10:17:53;9.85;;;4.13;;
69036;SDS011;58547;51.690;5.186;2022-07-04T10:20:19;11.75;;;4.65;;
69036;SDS011;58547;51.690;5.186;2022-07-04T10:22:44;13.55;;;4.18;;
69036;SDS011;58547;51.690;5.186;2022-07-04T10:25:10;14.50;;;4.60;;
69036;SDS011;58547;51.690;5.186;2022-07-04T10:27:35;11.13;;;4.13;;
69036;SDS011;58547;51.690;5.186;2022-07-04T10:30:03;11.70;;;4.55;;
69036;SDS011;58547;51.690;5.186;2022-07-04T10:32:30;8.60;;;4.53;;
69036;SDS011;58547;51.690;5.186;2022-07-04T10:34:57;12.77;;;4.97;;
69036;SDS011;58547;51.690;5.186;2022-07-04T10:37:23;12.88;;;4.32;;
69036;SDS011;58547;51.690;5.186;2022-07-04T10:39:48;11.00;;;3.92;;
69036;SDS011;58547;51.690;5.186;2022-07-04T10:42:23;7.55;;;4.25;;
69036;SDS011;58547;51.690;5.186;2022-07-04T10:44:49;7.50;;;3.10;;
69036;SDS011;58547;51.690;5.186;2022-07-04T10:47:24;11.43;;;3.90;;
69036;SDS011;58547;51.690;5.186;2022-07-04T10:49:54;7.82;;;3.05;;
69036;SDS011;58547;51.690;5.186;2022-07-04T10:52:20;13.13;;;4.13;;
69036;SDS011;58547;51.690;5.186;2022-07-04T10:54:45;12.70;;;3.35;;
69036;SDS011;58547;51.690;5.186;2022-07-04T10:57:23;6.97;;;3.15;;
69036;SDS011;58547;51.690;5.186;2022-07-04T11:04:56;11.43;;;3.38;;
69036;SDS011;58547;51.690;5.186;2022-07-04T11:20:24;3.03;;;1.17;;
69036;SDS011;58547;51.690;5.186;2022-07-04T11:22:51;7.05;;;1.85;;
69036;SDS011;58547;51.690;5.186;2022-07-04T11:25:17;8.43;;;3.10;;
69036;SDS011;58547;51.690;5.186;2022-07-04T11:27:43;9.73;;;2.65;;
69036;SDS011;58547;51.690;5.186;2022-07-04T11:30:09;6.88;;;2.53;;
69036;SDS011;58547;51.690;5.186;2022-07-04T11:32:36;6.97;;;3.05;;
69036;SDS011;58547;51.690;5.186;2022-07-04T11:35:06;7.35;;;2.25;;
69036;SDS011;58547;51.690;5.186;2022-07-04T11:37:32;6.93;;;2.20;;
69036;SDS011;58547;51.690;5.186;2022-07-04T11:39:58;4.80;;;2.30;;
69036;SDS011;58547;51.690;5.186;2022-07-04T11:45:49;6.15;;;2.20;;
69036;SDS011;58547;51.690;5.186;2022-07-04T11:48:20;6.07;;;1.90;;
69036;SDS011;58547;51.690;5.186;2022-07-04T11:50:49;5.53;;;1.92;;
69036;SDS011;58547;51.690;5.186;2022-07-04T11:53:16;4.63;;;1.90;;
69036;SDS011;58547;51.690;5.186;2022-07-04T11:55:52;6.72;;;2.20;;
69036;SDS011;58547;51.690;5.186;2022-07-04T11:58:18;5.45;;;2.22;;
69036;SDS011;58547;51.690;5.186;2022-07-04T12:00:43;6.60;;;1.90;;
69036;SDS011;58547;51.690;5.186;2022-07-04T12:03:09;5.63;;;2.33;;
69036;SDS011;58547;51.690;5.186;2022-07-04T12:05:35;4.97;;;2.80;;
69036;SDS011;58547;51.690;5.186;2022-07-04T12:08:01;7.03;;;2.70;;
69036;SDS011;58547;51.690;5.186;2022-07-04T12:10:28;8.98;;;2.30;;
69036;SDS011;58547;51.690;5.186;2022-07-04T12:12:55;5.28;;;1.98;;
69036;SDS011;58547;51.690;5.186;2022-07-04T12:15:22;5.97;;;2.47;;
69036;SDS011;58547;51.690;5.186;2022-07-04T12:17:49;3.70;;;1.75;;
69036;SDS011;58547;51.690;5.186;2022-07-04T12:20:16;6.43;;;2.17;;
69036;SDS011;58547;51.690;5.186;2022-07-04T12:22:58;4.57;;;2.63;;
69036;SDS011;58547;51.690;5.186;2022-07-04T12:25:33;4.15;;;2.00;;
69036;SDS011;58547;51.690;5.186;2022-07-04T12:28:04;7.53;;;2.00;;
69036;SDS011;58547;51.690;5.186;2022-07-04T12:30:42;3.38;;;1.73;;
69036;SDS011;58547;51.690;5.186;2022-07-04T12:33:17;4.82;;;2.20;;
69036;SDS011;58547;51.690;5.186;2022-07-04T12:38:11;2.95;;;1.75;;
69036;SDS011;58547;51.690;5.186;2022-07-04T12:40:37;3.60;;;1.50;;
69036;SDS011;58547;51.690;5.186;2022-07-04T12:43:14;7.35;;;2.17;;
69036;SDS011;58547;51.690;5.186;2022-07-04T12:45:43;4.47;;;2.20;;
69036;SDS011;58547;51.690;5.186;2022-07-04T12:48:21;5.43;;;2.05;;
69036;SDS011;58547;51.690;5.186;2022-07-04T12:50:50;3.10;;;1.38;;
69036;SDS011;58547;51.690;5.186;2022-07-04T12:53:17;8.10;;;1.90;;
69036;SDS011;58547;51.690;5.186;2022-07-04T12:55:44;3.85;;;1.60;;
69036;SDS011;58547;51.690;5.186;2022-07-04T12:58:10;5.05;;;1.83;;
69036;SDS011;58547;51.690;5.186;2022-07-04T13:00:38;3.90;;;1.85;;
69036;SDS011;58547;51.690;5.186;2022-07-04T13:03:04;4.72;;;1.92;;
69036;SDS011;58547;51.690;5.186;2022-07-04T13:05:29;6.78;;;1.80;;
69036;SDS011;58547;51.690;5.186;2022-07-04T13:07:55;3.53;;;1.55;;
69036;SDS011;58547;51.690;5.186;2022-07-04T13:10:20;5.95;;;2.28;;
69036;SDS011;58547;51.690;5.186;2022-07-04T13:12:46;3.40;;;1.80;;
69036;SDS011;58547;51.690;5.186;2022-07-04T13:15:11;5.90;;;1.50;;
69036;SDS011;58547;51.690;5.186;2022-07-04T13:17:37;3.95;;;1.75;;
69036;SDS011;58547;51.690;5.186;2022-07-04T13:20:02;1.90;;;1.40;;
69036;SDS011;58547;51.690;5.186;2022-07-04T13:22:29;4.60;;;1.52;;
69036;SDS011;58547;51.690;5.186;2022-07-04T13:24:55;2.10;;;1.42;;
69036;SDS011;58547;51.690;5.186;2022-07-04T13:27:20;5.90;;;1.70;;
69036;SDS011;58547;51.690;5.186;2022-07-04T13:29:45;5.38;;;1.90;;
69036;SDS011;58547;51.690;5.186;2022-07-04T13:32:11;6.28;;;1.90;;
69036;SDS011;58547;51.690;5.186;2022-07-04T13:34:36;3.60;;;1.35;;
69036;SDS011;58547;51.690;5.186;2022-07-04T13:37:02;4.45;;;1.35;;
69036;SDS011;58547;51.690;5.186;2022-07-04T13:39:28;4.28;;;1.60;;
69036;SDS011;58547;51.690;5.186;2022-07-04T13:41:54;4.93;;;1.48;;
69036;SDS011;58547;51.690;5.186;2022-07-04T13:44:19;6.60;;;2.15;;
69036;SDS011;58547;51.690;5.186;2022-07-04T13:46:45;3.53;;;1.80;;
69036;SDS011;58547;51.690;5.186;2022-07-04T13:49:10;3.47;;;1.40;;
69036;SDS011;58547;51.690;5.186;2022-07-04T13:51:36;1.85;;;1.30;;
69036;SDS011;58547;51.690;5.186;2022-07-04T13:54:02;6.70;;;1.65;;
69036;SDS011;58547;51.690;5.186;2022-07-04T13:56:28;5.40;;;1.50;;
69036;SDS011;58547;51.690;5.186;2022-07-04T13:58:53;4.03;;;1.75;;
69036;SDS011;58547;51.690;5.186;2022-07-04T14:01:18;4.68;;;1.45;;
69036;SDS011;58547;51.690;5.186;2022-07-04T14:03:45;2.22;;;1.40;;
69036;SDS011;58547;51.690;5.186;2022-07-04T14:06:11;4.10;;;1.50;;
69036;SDS011;58547;51.690;5.186;2022-07-04T14:08:36;1.95;;;1.10;;
69036;SDS011;58547;51.690;5.186;2022-07-04T14:11:02;3.22;;;1.55;;
69036;SDS011;58547;51.690;5.186;2022-07-04T14:13:27;2.90;;;1.63;;
69036;SDS011;58547;51.690;5.186;2022-07-04T14:15:53;2.97;;;1.40;;
69036;SDS011;58547;51.690;5.186;2022-07-04T14:18:19;5.68;;;1.50;;
69036;SDS011;58547;51.690;5.186;2022-07-04T14:20:45;3.65;;;1.70;;
69036;SDS011;58547;51.690;5.186;2022-07-04T14:23:10;2.72;;;1.63;;
69036;SDS011;58547;51.690;5.186;2022-07-04T14:25:37;3.38;;;1.40;;
69036;SDS011;58547;51.690;5.186;2022-07-04T14:28:02;3.63;;;1.60;;
69036;SDS011;58547;51.690;5.186;2022-07-04T14:30:28;3.72;;;1.40;;
69036;SDS011;58547;51.690;5.186;2022-07-04T14:32:53;4.53;;;1.88;;
69036;SDS011;58547;51.690;5.186;2022-07-04T14:35:19;3.83;;;1.50;;
69036;SDS011;58547;51.690;5.186;2022-07-04T14:37:44;2.63;;;1.50;;
69036;SDS011;58547;51.690;5.186;2022-07-04T14:40:10;2.38;;;1.67;;
69036;SDS011;58547;51.690;5.186;2022-07-04T14:42:36;5.35;;;2.28;;
69036;SDS011;58547;51.690;5.186;2022-07-04T14:45:01;4.97;;;1.63;;
69036;SDS011;58547;51.690;5.186;2022-07-04T14:47:27;6.60;;;1.85;;
69036;SDS011;58547;51.690;5.186;2022-07-04T14:49:52;5.15;;;1.73;;
69036;SDS011;58547;51.690;5.186;2022-07-04T14:52:17;2.55;;;1.42;;
69036;SDS011;58547;51.690;5.186;2022-07-04T14:54:43;6.70;;;2.10;;
69036;SDS011;58547;51.690;5.186;2022-07-04T14:57:08;3.42;;;1.77;;
69036;SDS011;58547;51.690;5.186;2022-07-04T14:59:33;3.90;;;1.73;;
69036;SDS011;58547;51.690;5.186;2022-07-04T15:02:03;6.38;;;1.70;;
69036;SDS011;58547;51.690;5.186;2022-07-04T15:04:29;5.18;;;1.83;;
69036;SDS011;58547;51.690;5.186;2022-07-04T15:06:54;6.05;;;1.75;;
69036;SDS011;58547;51.690;5.186;2022-07-04T15:09:20;5.05;;;2.40;;
69036;SDS011;58547;51.690;5.186;2022-07-04T15:11:46;4.88;;;1.90;;
69036;SDS011;58547;51.690;5.186;2022-07-04T15:14:12;4.47;;;1.60;;
69036;SDS011;58547;51.690;5.186;2022-07-04T15:16:38;4.18;;;1.70;;
69036;SDS011;58547;51.690;5.186;2022-07-04T15:19:03;3.88;;;2.00;;
69036;SDS011;58547;51.690;5.186;2022-07-04T15:21:29;3.05;;;1.67;;
69036;SDS011;58547;51.690;5.186;2022-07-04T15:24:13;4.68;;;2.10;;
69036;SDS011;58547;51.690;5.186;2022-07-04T15:26:45;2.63;;;1.58;;
69036;SDS011;58547;51.690;5.186;2022-07-04T15:29:14;5.43;;;1.75;;
69036;SDS011;58547;51.690;5.186;2022-07-04T15:31:41;3.13;;;1.50;;
69036;SDS011;58547;51.690;5.186;2022-07-04T15:34:07;5.15;;;1.90;;
69036;SDS011;58547;51.690;5.186;2022-07-04T15:36:33;4.00;;;1.70;;
69036;SDS011;58547;51.690;5.186;2022-07-04T15:38:58;3.53;;;1.70;;
69036;SDS011;58547;51.690;5.186;2022-07-04T15:41:24;3.95;;;2.00;;
69036;SDS011;58547;51.690;5.186;2022-07-04T15:43:49;3.30;;;1.50;;
69036;SDS011;58547;51.690;5.186;2022-07-04T15:46:14;5.18;;;1.48;;
69036;SDS011;58547;51.690;5.186;2022-07-04T15:48:40;3.47;;;1.77;;
69036;SDS011;58547;51.690;5.186;2022-07-04T15:51:05;7.93;;;1.58;;
69036;SDS011;58547;51.690;5.186;2022-07-04T15:53:30;4.15;;;1.70;;
69036;SDS011;58547;51.690;5.186;2022-07-04T15:55:56;5.88;;;1.55;;
69036;SDS011;58547;51.690;5.186;2022-07-04T15:58:21;4.00;;;1.90;;
69036;SDS011;58547;51.690;5.186;2022-07-04T16:00:46;2.55;;;1.40;;
69036;SDS011;58547;51.690;5.186;2022-07-04T16:03:12;4.57;;;1.80;;
69036;SDS011;58547;51.690;5.186;2022-07-04T16:05:39;5.90;;;1.65;;
69036;SDS011;58547;51.690;5.186;2022-07-04T16:08:04;3.88;;;1.65;;
69036;SDS011;58547;51.690;5.186;2022-07-04T16:10:30;3.95;;;2.05;;
69036;SDS011;58547;51.690;5.186;2022-07-04T16:12:55;4.35;;;1.77;;
69036;SDS011;58547;51.690;5.186;2022-07-04T16:15:21;4.47;;;1.75;;
69036;SDS011;58547;51.690;5.186;2022-07-04T16:17:47;3.97;;;1.52;;
69036;SDS011;58547;51.690;5.186;2022-07-04T16:20:12;3.15;;;1.83;;
69036;SDS011;58547;51.690;5.186;2022-07-04T16:22:37;4.10;;;2.20;;
69036;SDS011;58547;51.690;5.186;2022-07-04T16:25:02;4.00;;;1.80;;
69036;SDS011;58547;51.690;5.186;2022-07-04T16:27:28;2.53;;;1.50;;
69036;SDS011;58547;51.690;5.186;2022-07-04T16:29:55;4.10;;;1.70;;
69036;SDS011;58547;51.690;5.186;2022-07-04T16:32:20;2.97;;;1.40;;
69036;SDS011;58547;51.690;5.186;2022-07-04T16:34:46;3.80;;;1.70;;